Time;durP1;ratioP1;P1;durP2;ratioP2;P2;SDS_P1;SDS_P2;PMS_P1;PMS_P2;Temp;Humidity;BMP_temperature;BMP_pressure;BME280_temperature;BME280_humidity;BME280_pressure;Samples;Min_cycle;Max_cycle;Signal;HPM_P1;HPM_P2
2021/12/04 00:02:19;;;;;;;6.60;2.83;;;4.90;99.90;;;;;;4974882;28;20267;-88
2021/12/04 00:04:53;;;;;;;6.03;2.63;;;4.90;99.90;;;;;;4971800;29;20246;-88
2021/12/04 00:07:30;;;;;;;6.40;2.60;;;4.80;99.90;;;;;;4951372;29;20215;-88
2021/12/04 00:10:03;;;;;;;8.47;2.90;;;4.80;99.90;;;;;;4976663;28;20215;-89
2021/12/04 00:12:37;;;;;;;4.57;2.53;;;4.70;99.90;;;;;;4965403;28;20219;-94
2021/12/04 00:15:10;;;;;;;5.43;3.10;;;4.70;99.90;;;;;;4946539;29;20246;-88
2021/12/04 00:17:42;;;;;;;5.43;2.83;;;4.70;99.90;;;;;;4960737;29;20208;-88
2021/12/04 00:20:14;;;;;;;8.40;3.10;;;4.70;99.90;;;;;;4960577;29;20236;-88
2021/12/04 00:22:56;;;;;;;4.83;2.60;;;4.60;99.90;;;;;;4968191;28;20575;-89
2021/12/04 00:25:28;;;;;;;4.23;2.53;;;4.60;99.90;;;;;;4968696;28;20204;-89
2021/12/04 00:28:02;;;;;;;6.47;2.73;;;4.50;99.90;;;;;;4976764;28;20216;-90
2021/12/04 00:30:34;;;;;;;4.23;2.27;;;4.50;99.90;;;;;;4975113;28;20302;-89
2021/12/04 00:33:08;;;;;;;5.07;1.97;;;4.50;99.90;;;;;;4976781;28;20230;-88
2021/12/04 00:35:46;;;;;;;7.57;2.67;;;4.40;99.90;;;;;;4973657;28;20245;-89
2021/12/04 00:49:30;;;;;;;3.37;1.90;;;4.20;99.90;;;;;;4974553;29;20346;-87
2021/12/04 00:52:03;;;;;;;7.20;2.07;;;4.20;99.90;;;;;;4976904;28;20246;-88
2021/12/04 00:54:37;;;;;;;5.67;2.23;;;4.20;99.90;;;;;;4976260;28;20584;-87
2021/12/04 00:57:10;;;;;;;6.20;2.17;;;4.20;99.90;;;;;;4978261;28;20195;-87
2021/12/04 00:59:47;;;;;;;2.97;2.23;;;4.20;99.90;;;;;;4978231;28;20241;-87
2021/12/04 01:02:20;;;;;;;5.63;2.93;;;4.10;99.90;;;;;;4970160;28;20215;-87
2021/12/04 01:04:54;;;;;;;4.60;2.60;;;4.10;99.90;;;;;;4947687;29;20216;-88
2021/12/04 01:07:29;;;;;;;7.50;3.47;;;4.20;99.90;;;;;;5011880;23;20430;-87
2021/12/04 01:10:09;;;;;;;6.67;3.10;;;4.10;99.90;;;;;;5033955;28;20209;-89
2021/12/04 01:23:17;;;;;;;8.87;2.97;;;4.00;99.90;;;;;;5016844;28;20209;-87
2021/12/04 01:25:52;;;;;;;6.53;3.23;;;4.00;99.90;;;;;;5014814;28;20202;-88
2021/12/04 01:28:25;;;;;;;6.00;3.53;;;4.00;99.90;;;;;;5012399;28;20221;-88
2021/12/04 01:30:58;;;;;;;5.20;2.63;;;3.90;99.90;;;;;;5012681;28;20290;-87
2021/12/04 01:33:30;;;;;;;7.13;3.37;;;3.90;99.90;;;;;;5004009;28;20230;-88
2021/12/04 01:36:03;;;;;;;6.33;2.80;;;3.90;99.90;;;;;;5005487;28;20218;-88
2021/12/04 01:38:36;;;;;;;4.80;3.43;;;3.90;99.90;;;;;;5008808;28;20210;-88
2021/12/04 01:41:11;;;;;;;5.87;3.10;;;3.90;99.90;;;;;;5008056;28;20210;-89
2021/12/04 01:43:48;;;;;;;6.47;3.27;;;3.90;99.90;;;;;;5009269;28;20301;-88
2021/12/04 01:46:20;;;;;;;8.23;3.97;;;3.90;99.90;;;;;;5003490;28;20207;-88
2021/12/04 01:48:52;;;;;;;6.90;4.23;;;3.90;99.90;;;;;;5000666;28;20210;-87
2021/12/04 01:51:24;;;;;;;8.13;4.20;;;3.90;99.90;;;;;;5001880;28;20203;-88
2021/12/04 01:53:57;;;;;;;7.50;4.37;;;3.90;99.90;;;;;;4997513;28;20252;-88
2021/12/04 01:56:33;;;;;;;12.10;4.57;;;3.90;99.90;;;;;;4999111;28;20237;-88
2021/12/04 01:59:06;;;;;;;8.27;4.40;;;3.90;99.90;;;;;;4991679;28;20234;-88
2021/12/04 02:01:38;;;;;;;8.50;4.20;;;4.00;99.90;;;;;;5007125;28;20209;-88
2021/12/04 02:04:12;;;;;;;6.43;4.33;;;3.90;99.90;;;;;;5003058;28;20211;-88
2021/12/04 02:06:44;;;;;;;9.20;5.00;;;3.90;99.90;;;;;;5006480;28;20274;-88
2021/12/04 02:09:17;;;;;;;8.57;5.33;;;4.00;99.90;;;;;;5004104;28;20213;-95
2021/12/04 02:11:52;;;;;;;7.57;4.10;;;4.00;99.90;;;;;;5002351;28;20274;-95
2021/12/04 02:14:25;;;;;;;6.83;4.20;;;4.00;99.90;;;;;;5000346;28;20252;-96
2021/12/04 02:16:58;;;;;;;11.07;4.57;;;4.00;99.90;;;;;;5012295;28;20194;-96
2021/12/04 02:19:31;;;;;;;6.97;3.90;;;4.00;99.90;;;;;;5013183;28;20238;-95
2021/12/04 02:22:06;;;;;;;6.97;4.23;;;4.00;99.90;;;;;;5010128;28;20217;-95
2021/12/04 02:24:41;;;;;;;7.03;4.07;;;4.00;99.90;;;;;;5002856;28;20233;-91
2021/12/04 02:27:14;;;;;;;7.03;4.60;;;4.10;99.90;;;;;;5003203;28;20218;-94
2021/12/04 02:29:48;;;;;;;7.40;4.33;;;4.10;99.90;;;;;;5006304;28;20212;-93
2021/12/04 02:32:24;;;;;;;6.13;4.20;;;4.10;99.90;;;;;;5005374;28;20198;-92
2021/12/04 02:34:57;;;;;;;7.65;4.38;;;4.10;99.90;;;;;;4928308;23;9999696;-96
2021/12/04 02:37:38;;;;;;;8.77;5.10;;;4.00;99.90;;;;;;5270454;23;20269;-95
2021/12/04 02:40:17;;;;;;;7.17;4.53;;;4.00;99.90;;;;;;5014600;28;20232;-96
2021/12/04 02:42:52;;;;;;;9.57;4.87;;;4.00;99.90;;;;;;5013385;28;20193;-95
2021/12/04 02:59:03;;;;;;;6.23;4.83;;;3.90;99.90;;;;;;4988989;28;20221;-92
2021/12/04 03:01:40;;;;;;;6.97;4.87;;;3.90;99.90;;;;;;4995930;28;20202;-93
2021/12/04 03:04:15;;;;;;;10.70;5.40;;;3.90;99.90;;;;;;4982793;28;20218;-94
2021/12/04 03:06:49;;;;;;;5.80;4.67;;;3.90;99.90;;;;;;4995359;28;20186;-95
2021/12/04 03:09:22;;;;;;;6.83;4.73;;;3.90;99.90;;;;;;4995973;28;20195;-92
2021/12/04 03:11:57;;;;;;;6.27;5.27;;;3.90;99.90;;;;;;4995134;28;20190;-93
2021/12/04 03:14:28;;;;;;;6.00;4.87;;;3.90;99.90;;;;;;4994210;28;20205;-94
2021/12/04 03:17:00;;;;;;;7.17;5.10;;;3.80;99.90;;;;;;4985938;28;20217;-92
2021/12/04 03:19:32;;;;;;;7.40;5.37;;;3.90;99.90;;;;;;4984761;28;20227;-93
2021/12/04 03:22:08;;;;;;;7.70;4.93;;;3.90;99.90;;;;;;4981861;28;20716;-93
2021/12/04 03:24:42;;;;;;;15.07;8.00;;;3.80;99.90;;;;;;4979767;28;20211;-93
2021/12/04 03:27:18;;;;;;;16.60;10.80;;;3.80;99.90;;;;;;4983278;28;20210;-92
2021/12/04 03:29:55;;;;;;;21.97;14.20;;;3.80;99.90;;;;;;4980937;28;20211;-93
2021/12/04 03:35:26;;;;;;;24.77;16.70;;;3.90;99.90;;;;;;4967387;28;20210;-86
2021/12/04 03:40:58;;;;;;;12.87;8.73;;;3.90;99.90;;;;;;4992567;28;20254;-91
2021/12/04 03:43:33;;;;;;;11.27;5.80;;;3.90;99.90;;;;;;4989271;28;20203;-85
2021/12/04 03:46:09;;;;;;;11.43;5.07;;;3.90;99.90;;;;;;4994635;28;20351;-84
2021/12/04 03:48:53;;;;;;;8.50;5.03;;;3.90;99.90;;;;;;4993137;28;20294;-84
2021/12/04 03:51:25;;;;;;;8.47;4.50;;;4.00;99.90;;;;;;4990492;28;20213;-86
2021/12/04 03:53:58;;;;;;;10.40;5.80;;;4.00;99.90;;;;;;4995496;28;20199;-85
2021/12/04 03:56:32;;;;;;;9.47;5.43;;;3.90;99.90;;;;;;4980889;28;20234;-84
2021/12/04 03:59:08;;;;;;;8.43;5.37;;;3.90;99.90;;;;;;4994472;28;20229;-85
2021/12/04 04:01:42;;;;;;;7.23;4.60;;;3.90;99.90;;;;;;5010392;28;20230;-86
2021/12/04 04:04:16;;;;;;;7.07;4.80;;;3.90;99.90;;;;;;5006073;28;20214;-88
2021/12/04 04:14:44;;;;;;;6.33;3.60;;;3.90;99.90;;;;;;4991223;28;20254;-85
2021/12/04 04:17:16;;;;;;;10.03;4.63;;;3.90;99.90;;;;;;4993666;28;20266;-86
2021/12/04 04:19:49;;;;;;;6.33;3.90;;;3.90;99.90;;;;;;4992278;28;20311;-87
2021/12/04 04:22:21;;;;;;;9.67;4.13;;;4.00;99.90;;;;;;4977230;28;20291;-84
2021/12/04 04:24:53;;;;;;;7.63;4.33;;;3.90;99.90;;;;;;4961371;28;20207;-84
2021/12/04 04:27:25;;;;;;;8.27;5.23;;;3.90;99.90;;;;;;4961286;28;20212;-85
2021/12/04 04:30:01;;;;;;;8.33;4.20;;;3.90;99.90;;;;;;4966139;28;20295;-85
2021/12/04 04:32:35;;;;;;;8.03;4.73;;;3.90;99.90;;;;;;4974999;28;20207;-85
2021/12/04 04:35:11;;;;;;;8.30;4.60;;;3.90;99.90;;;;;;4963009;28;20204;-85
2021/12/04 04:37:51;;;;;;;10.60;4.20;;;3.90;99.90;;;;;;4971819;29;20707;-85
2021/12/04 05:00:14;;;;;;;7.07;3.60;;;3.90;99.90;;;;;;4976417;28;20211;-85
2021/12/04 05:11:19;;;;;;;11.97;4.27;;;3.90;99.90;;;;;;4942406;29;20208;-86
2021/12/04 05:13:51;;;;;;;10.87;4.73;;;4.00;99.90;;;;;;4948936;28;20283;-84
2021/12/04 05:16:30;;;;;;;7.83;4.13;;;4.00;99.90;;;;;;4952242;29;20216;-85
2021/12/04 05:19:12;;;;;;;9.30;4.60;;;4.00;99.90;;;;;;4960029;29;20215;-86
2021/12/04 05:21:44;;;;;;;7.97;4.00;;;3.90;99.90;;;;;;4960505;28;20240;-86
2021/12/04 05:24:16;;;;;;;7.10;4.07;;;3.90;99.90;;;;;;4949049;29;20224;-86
2021/12/04 05:26:48;;;;;;;11.23;4.03;;;3.90;99.90;;;;;;4957543;28;20204;-85
2021/12/04 05:29:20;;;;;;;8.83;3.97;;;3.90;99.90;;;;;;4930135;29;20215;-87
2021/12/04 05:31:52;;;;;;;8.17;4.13;;;4.00;99.90;;;;;;4961335;28;20218;-89
2021/12/04 05:34:29;;;;;;;12.10;4.40;;;4.00;99.90;;;;;;4961984;28;20265;-88
2021/12/04 05:37:02;;;;;;;9.83;4.30;;;4.00;99.90;;;;;;4612928;28;10000157;-88
2021/12/04 05:39:34;;;;;;;12.53;4.80;;;4.00;99.90;;;;;;4968194;28;20231;-89
2021/12/04 05:42:06;;;;;;;8.33;4.20;;;4.00;99.90;;;;;;4958623;29;20239;-88
2021/12/04 05:44:39;;;;;;;10.07;4.20;;;3.90;99.90;;;;;;4953888;28;20200;-89
2021/12/04 05:59:54;;;;;;;6.97;3.80;;;4.00;99.90;;;;;;4620809;28;10000287;-95
2021/12/04 06:02:26;;;;;;;7.90;4.00;;;4.00;99.90;;;;;;4975716;28;20245;-94
2021/12/04 06:04:58;;;;;;;8.03;3.80;;;4.00;99.90;;;;;;4974343;28;20303;-93
2021/12/04 06:07:30;;;;;;;6.87;3.63;;;3.90;99.90;;;;;;4975271;28;20233;-94
2021/12/04 06:10:04;;;;;;;10.33;4.10;;;3.90;99.90;;;;;;4974598;28;20231;-95
2021/12/04 06:12:37;;;;;;;8.47;3.47;;;3.90;99.90;;;;;;4968790;28;20225;-94
2021/12/04 06:15:13;;;;;;;7.47;3.80;;;3.90;99.90;;;;;;4983693;28;20234;-95
2021/12/04 06:17:44;;;;;;;10.13;4.10;;;3.90;99.90;;;;;;4968896;28;20217;-94
2021/12/04 06:23:08;;;;;;;8.53;4.20;;;3.90;99.90;;;;;;4977387;28;20226;-94
2021/12/04 06:25:39;;;;;;;7.70;4.17;;;3.90;99.90;;;;;;4978116;28;20222;-94
2021/12/04 06:28:11;;;;;;;11.60;3.83;;;3.90;99.90;;;;;;4978979;28;20203;-93
2021/12/04 06:30:45;;;;;;;9.17;4.63;;;3.90;99.90;;;;;;4975119;28;20356;-92
2021/12/04 06:33:18;;;;;;;9.50;4.30;;;3.90;99.90;;;;;;4977460;28;20294;-91
2021/12/04 06:35:52;;;;;;;7.37;4.07;;;3.90;99.90;;;;;;4983646;28;20200;-93
2021/12/04 06:38:24;;;;;;;10.50;4.80;;;3.90;99.90;;;;;;4985694;28;20195;-92
2021/12/04 06:40:56;;;;;;;10.67;4.43;;;3.90;99.90;;;;;;4977216;28;20199;-92
2021/12/04 06:43:28;;;;;;;8.70;4.60;;;3.80;99.90;;;;;;4975465;28;20231;-92
2021/12/04 06:46:04;;;;;;;8.63;4.93;;;3.70;99.90;;;;;;4979929;28;20212;-93
2021/12/04 06:49:00;;;;;;;8.97;5.13;;;3.80;99.90;;;;;;4981606;28;20294;-93
2021/12/04 06:51:34;;;;;;;6.87;4.43;;;3.80;99.90;;;;;;4992479;28;20203;-93
2021/12/04 06:54:09;;;;;;;8.87;4.60;;;3.80;99.90;;;;;;4996635;28;20226;-93
2021/12/04 06:56:42;;;;;;;9.67;4.77;;;3.80;99.90;;;;;;4994550;28;20203;-92
2021/12/04 06:59:20;;;;;;;9.03;4.20;;;3.90;99.90;;;;;;4983031;28;20210;-92
2021/12/04 07:01:58;;;;;;;7.57;4.00;;;3.90;99.90;;;;;;4982238;28;20227;-93
2021/12/04 07:04:34;;;;;;;10.33;4.50;;;3.90;99.90;;;;;;4979011;28;20220;-92
2021/12/04 07:07:07;;;;;;;7.13;4.47;;;3.90;99.90;;;;;;4981406;28;20210;-92
2021/12/04 07:09:40;;;;;;;10.73;4.50;;;3.90;99.90;;;;;;4981262;28;20718;-91
2021/12/04 07:12:13;;;;;;;8.43;4.70;;;3.90;99.90;;;;;;4985398;28;20217;-94
2021/12/04 07:14:46;;;;;;;10.87;4.77;;;3.90;99.90;;;;;;4983695;28;20217;-93
2021/12/04 07:17:20;;;;;;;9.70;4.77;;;3.90;99.90;;;;;;4985120;28;20213;-93
2021/12/04 07:19:53;;;;;;;9.47;5.03;;;3.90;99.90;;;;;;4983737;28;20202;-93
2021/12/04 07:22:25;;;;;;;9.47;5.10;;;3.80;99.90;;;;;;4984795;28;20249;-93
2021/12/04 07:24:58;;;;;;;10.10;5.17;;;3.90;99.90;;;;;;4984590;28;20211;-91
2021/12/04 07:27:29;;;;;;;8.37;4.90;;;3.90;99.90;;;;;;4983469;28;20209;-92
2021/12/04 07:30:01;;;;;;;8.57;4.90;;;3.90;99.90;;;;;;4983812;28;20214;-93
2021/12/04 07:32:36;;;;;;;10.43;4.80;;;3.90;99.90;;;;;;4984856;28;20658;-91
2021/12/04 07:35:09;;;;;;;9.23;4.53;;;3.90;99.90;;;;;;4982898;28;20298;-93
2021/12/04 07:37:41;;;;;;;8.57;4.70;;;3.90;99.90;;;;;;4982266;28;20253;-92
2021/12/04 07:40:14;;;;;;;6.07;4.23;;;3.90;99.90;;;;;;4967592;28;20210;-93
2021/12/04 07:42:47;;;;;;;7.97;5.00;;;3.90;99.90;;;;;;4983170;28;20234;-93
2021/12/04 07:45:20;;;;;;;9.37;4.73;;;3.90;99.90;;;;;;4988515;28;20282;-93
2021/12/04 07:47:53;;;;;;;8.10;4.43;;;3.90;99.90;;;;;;4989257;28;20203;-91
2021/12/04 07:50:25;;;;;;;7.83;4.33;;;3.90;99.90;;;;;;4982753;28;20226;-91
2021/12/04 07:52:57;;;;;;;7.47;4.20;;;3.90;99.90;;;;;;4982681;28;20202;-92
2021/12/04 07:55:29;;;;;;;6.13;4.20;;;3.90;99.90;;;;;;4981783;28;20207;-92
2021/12/04 07:58:04;;;;;;;6.40;4.10;;;3.90;99.90;;;;;;4981309;28;20218;-92
2021/12/04 08:00:37;;;;;;;7.63;4.20;;;4.00;99.90;;;;;;4982119;28;20207;-93
2021/12/04 08:03:13;;;;;;;7.20;4.40;;;3.90;99.90;;;;;;4982774;28;20253;-92
2021/12/04 08:05:46;;;;;;;8.20;4.37;;;3.90;99.90;;;;;;4984287;28;20205;-92
2021/12/04 08:08:18;;;;;;;9.00;4.77;;;3.90;99.90;;;;;;4985490;28;20211;-91
2021/12/04 08:10:51;;;;;;;9.37;4.57;;;3.90;99.90;;;;;;4985280;28;20209;-93
2021/12/04 08:13:22;;;;;;;8.73;4.70;;;3.90;99.90;;;;;;4982986;28;20217;-93
2021/12/04 08:15:56;;;;;;;12.03;5.20;;;3.80;99.90;;;;;;4984113;28;20262;-95
2021/12/04 08:18:30;;;;;;;9.80;4.50;;;3.80;99.90;;;;;;4984773;28;20214;-93
2021/12/04 08:21:02;;;;;;;7.37;4.50;;;3.80;99.90;;;;;;4982797;28;20210;-92
2021/12/04 08:23:34;;;;;;;9.27;4.87;;;3.80;99.90;;;;;;4981512;28;20241;-93
2021/12/04 08:26:06;;;;;;;7.27;4.50;;;3.80;99.90;;;;;;4981797;28;20275;-92
2021/12/04 08:28:37;;;;;;;7.03;4.20;;;3.80;99.90;;;;;;4982721;28;20566;-92
2021/12/04 08:31:10;;;;;;;7.37;4.90;;;3.80;99.90;;;;;;4983168;28;20211;-92
2021/12/04 08:33:45;;;;;;;9.43;4.80;;;3.80;99.90;;;;;;4984957;28;20211;-93
2021/12/04 08:36:16;;;;;;;7.97;4.70;;;3.90;99.90;;;;;;4982188;28;20287;-93
2021/12/04 08:38:48;;;;;;;6.63;4.50;;;3.90;99.90;;;;;;4981944;28;20207;-91
2021/12/04 08:41:22;;;;;;;8.97;5.33;;;3.80;99.90;;;;;;4981670;28;20210;-91
2021/12/04 08:43:55;;;;;;;8.13;4.73;;;3.90;99.90;;;;;;4981478;28;20238;-92
2021/12/04 08:46:27;;;;;;;7.57;4.50;;;3.80;99.90;;;;;;4986015;28;20305;-92
2021/12/04 08:49:01;;;;;;;8.73;4.90;;;3.80;99.90;;;;;;5001494;28;20226;-92
2021/12/04 08:51:35;;;;;;;7.70;4.90;;;3.80;99.90;;;;;;4971550;28;20274;-92
2021/12/04 08:54:07;;;;;;;10.73;5.07;;;3.80;99.90;;;;;;4981681;28;20229;-92
2021/12/04 08:56:39;;;;;;;8.80;4.63;;;3.80;99.90;;;;;;4981261;28;20215;-93
2021/12/04 08:59:12;;;;;;;8.67;5.07;;;3.80;99.90;;;;;;4982079;28;20218;-93
2021/12/04 09:01:52;;;;;;;8.77;5.00;;;3.80;99.90;;;;;;4983273;28;20237;-92
2021/12/04 09:04:36;;;;;;;8.90;4.20;;;3.90;99.90;;;;;;4984119;28;20217;-92
2021/12/04 09:07:14;;;;;;;8.40;4.73;;;3.90;99.90;;;;;;4994467;28;20191;-91
2021/12/04 09:09:56;;;;;;;10.10;5.60;;;3.90;99.90;;;;;;4995808;28;20207;-93
2021/12/04 09:12:33;;;;;;;8.63;5.13;;;3.90;99.90;;;;;;4983758;28;20217;-92
2021/12/04 09:15:20;;;;;;;11.73;6.00;;;3.80;99.90;;;;;;4986305;28;20238;-93
2021/12/04 09:18:04;;;;;;;12.33;5.70;;;3.80;99.90;;;;;;4982590;28;20245;-93
2021/12/04 09:20:56;;;;;;;9.67;6.27;;;3.90;99.90;;;;;;4984041;28;20214;-93
2021/12/04 09:23:35;;;;;;;10.80;5.20;;;3.90;99.90;;;;;;4981329;28;20226;-93
2021/12/04 09:26:11;;;;;;;7.10;5.30;;;3.90;99.90;;;;;;4980902;28;20222;-92
2021/12/04 09:28:50;;;;;;;9.27;5.27;;;3.90;99.90;;;;;;4982175;28;20218;-92
2021/12/04 09:31:36;;;;;;;10.97;5.50;;;3.90;99.90;;;;;;4981325;28;20203;-92
2021/12/04 10:00:07;;;;;;;7.07;5.30;;;3.90;99.90;;;;;;4989784;28;20211;-93
2021/12/04 10:17:15;;;;;;;9.43;5.40;;;3.90;99.90;;;;;;4954871;28;20223;-92
2021/12/04 10:20:13;;;;;;;8.13;5.00;;;3.90;99.90;;;;;;4994200;28;20217;-93
2021/12/04 10:23:08;;;;;;;7.67;5.43;;;3.90;99.90;;;;;;5057187;23;20222;-91
2021/12/04 10:34:29;;;;;;;9.20;5.80;;;3.90;99.90;;;;;;4987778;28;20575;-91
2021/12/04 10:37:07;;;;;;;8.23;5.70;;;3.90;99.90;;;;;;4969215;28;20217;-90
2021/12/04 10:39:39;;;;;;;9.37;6.70;;;3.90;99.90;;;;;;4966538;28;20215;-91
2021/12/04 10:42:15;;;;;;;7.30;5.40;;;3.90;99.90;;;;;;5008837;28;20661;-91
2021/12/04 10:44:55;;;;;;;11.13;6.20;;;3.90;99.90;;;;;;5021369;28;20256;-91
2021/12/04 10:50:09;;;;;;;8.87;5.80;;;3.90;99.90;;;;;;5003587;28;20898;-92
2021/12/04 11:01:07;;;;;;;11.70;6.53;;;3.90;99.90;;;;;;5001703;28;20214;-93
2021/12/04 11:03:43;;;;;;;9.27;5.73;;;3.90;99.90;;;;;;4989022;28;20278;-93
2021/12/04 11:24:04;;;;;;;8.13;5.33;;;3.80;99.90;;;;;;4983587;28;20248;-93
2021/12/04 11:38:14;;;;;;;8.57;5.40;;;3.60;99.90;;;;;;4980199;28;20683;-92
2021/12/04 11:41:10;;;;;;;6.03;4.80;;;3.80;99.90;;;;;;4980592;28;20218;-92
2021/12/04 11:43:53;;;;;;;6.90;5.03;;;3.80;99.90;;;;;;4979660;28;20235;-94
2021/12/04 11:46:41;;;;;;;8.60;5.00;;;3.80;99.90;;;;;;4979464;28;20222;-93
2021/12/04 11:49:17;;;;;;;8.50;5.10;;;3.80;99.90;;;;;;4979052;28;20215;-92
2021/12/04 11:52:07;;;;;;;6.73;4.80;;;3.90;99.90;;;;;;4963841;28;20206;-93
2021/12/04 11:54:47;;;;;;;5.80;4.20;;;3.90;99.90;;;;;;4963741;28;20213;-93
2021/12/04 11:57:30;;;;;;;8.27;4.17;;;3.90;99.90;;;;;;4978760;28;20206;-92
2021/12/04 12:00:14;;;;;;;5.97;4.43;;;4.00;99.90;;;;;;4983225;28;20211;-93
2021/12/04 12:02:46;;;;;;;5.97;4.00;;;4.00;99.90;;;;;;4983967;28;20211;-92
2021/12/04 12:05:22;;;;;;;9.07;4.80;;;4.00;99.90;;;;;;4983758;28;20234;-93
2021/12/04 12:07:59;;;;;;;5.57;4.30;;;3.90;99.90;;;;;;4982965;28;20207;-93
2021/12/04 12:10:31;;;;;;;6.37;4.40;;;4.00;99.90;;;;;;4983964;28;20214;-93
2021/12/04 12:13:07;;;;;;;8.27;4.83;;;3.90;99.90;;;;;;4985418;28;20226;-93
2021/12/04 12:15:40;;;;;;;8.03;5.23;;;3.90;99.90;;;;;;4997696;28;20258;-92
2021/12/04 12:18:14;;;;;;;6.57;5.03;;;3.80;99.90;;;;;;4984165;28;20207;-93
2021/12/04 12:20:51;;;;;;;6.90;5.03;;;3.60;99.90;;;;;;4987438;28;20237;-92
2021/12/04 12:23:28;;;;;;;8.50;5.20;;;3.60;99.90;;;;;;4983700;28;20225;-94
2021/12/04 12:37:26;;;;;;;6.73;4.67;;;3.80;99.90;;;;;;4982316;28;20294;-93
2021/12/04 12:40:04;;;;;;;8.50;4.80;;;3.90;99.90;;;;;;4982137;28;20560;-92
2021/12/04 12:42:41;;;;;;;8.13;4.17;;;3.90;99.90;;;;;;4982594;28;20218;-92
2021/12/04 12:45:27;;;;;;;6.17;3.90;;;3.90;99.90;;;;;;4964576;28;20662;-92
2021/12/04 12:48:03;;;;;;;8.43;4.93;;;4.10;99.90;;;;;;5012657;23;20299;-92
2021/12/04 12:50:38;;;;;;;11.33;4.47;;;4.00;99.90;;;;;;4982455;28;20224;-91
2021/12/04 12:53:15;;;;;;;7.40;3.97;;;4.00;99.90;;;;;;4982579;28;20219;-92
2021/12/04 12:55:53;;;;;;;6.67;4.70;;;4.00;99.90;;;;;;4982021;28;20215;-91
2021/12/04 12:58:31;;;;;;;5.17;4.37;;;4.00;99.90;;;;;;4965893;28;20237;-94
2021/12/04 13:12:49;;;;;;;5.57;4.07;;;4.00;99.90;;;;;;4983433;28;20226;-91
2021/12/04 13:15:35;;;;;;;8.33;4.20;;;4.00;99.90;;;;;;4981343;28;20314;-92
2021/12/04 13:18:16;;;;;;;6.53;4.50;;;4.10;99.90;;;;;;4980933;28;20213;-92
2021/12/04 13:20:48;;;;;;;6.93;4.60;;;4.30;99.90;;;;;;4980321;28;20313;-93
2021/12/04 13:23:21;;;;;;;5.23;4.13;;;4.20;99.90;;;;;;4981691;28;20206;-91
2021/12/04 13:25:55;;;;;;;8.07;4.33;;;4.20;99.90;;;;;;4980881;28;20698;-94
2021/12/04 13:28:32;;;;;;;5.63;4.13;;;4.20;99.90;;;;;;4988713;28;20246;-92
2021/12/04 13:31:04;;;;;;;6.93;4.20;;;4.20;99.90;;;;;;4982615;28;20651;-92
2021/12/04 13:33:38;;;;;;;5.77;4.00;;;4.20;99.90;;;;;;4982221;28;20655;-93
2021/12/04 13:36:15;;;;;;;5.67;3.83;;;4.20;99.90;;;;;;4983108;28;20242;-92
2021/12/04 13:38:47;;;;;;;5.67;3.97;;;4.20;99.90;;;;;;4993487;28;20195;-92
2021/12/04 13:41:20;;;;;;;6.23;4.43;;;4.20;99.90;;;;;;4997775;28;20231;-92
2021/12/04 13:43:57;;;;;;;9.43;4.07;;;4.10;99.90;;;;;;4994300;28;20199;-92
2021/12/04 13:46:29;;;;;;;6.83;4.17;;;4.20;99.90;;;;;;4984999;28;20218;-93
2021/12/04 13:49:04;;;;;;;7.77;4.40;;;4.20;99.90;;;;;;4983647;28;20218;-92
2021/12/04 13:51:35;;;;;;;6.97;4.63;;;4.20;99.90;;;;;;4981726;28;20586;-93
2021/12/04 13:54:07;;;;;;;7.73;5.33;;;4.20;99.90;;;;;;4985124;28;20294;-93
2021/12/04 13:56:39;;;;;;;9.13;4.83;;;4.30;99.90;;;;;;4980734;28;20222;-93
2021/12/04 13:59:22;;;;;;;6.33;4.80;;;4.20;99.90;;;;;;4979679;28;20207;-93
2021/12/04 14:01:55;;;;;;;9.80;5.43;;;4.30;99.90;;;;;;4980467;28;20213;-92
2021/12/04 14:04:27;;;;;;;11.10;6.40;;;4.20;99.90;;;;;;4982150;28;20287;-95
2021/12/04 14:07:00;;;;;;;7.87;6.37;;;4.10;99.90;;;;;;4979996;28;20258;-93
2021/12/04 14:09:37;;;;;;;7.63;5.50;;;4.00;99.90;;;;;;4980099;28;20726;-94
2021/12/04 14:12:10;;;;;;;8.37;5.73;;;4.00;99.90;;;;;;4980123;28;20226;-93
2021/12/04 14:14:45;;;;;;;9.13;6.23;;;4.00;99.90;;;;;;4978793;28;20211;-94
2021/12/04 14:17:20;;;;;;;9.60;6.17;;;4.00;99.90;;;;;;4979193;28;20206;-91
2021/12/04 14:19:53;;;;;;;8.70;6.47;;;4.10;99.90;;;;;;4979732;28;20635;-91
2021/12/04 14:22:25;;;;;;;7.77;5.53;;;4.10;99.90;;;;;;4979290;28;20214;-92
2021/12/04 14:25:01;;;;;;;7.77;6.03;;;4.10;99.90;;;;;;4980218;28;20714;-92
2021/12/04 14:27:36;;;;;;;9.47;6.67;;;4.10;99.90;;;;;;4977927;28;20210;-92
2021/12/04 14:30:12;;;;;;;11.73;6.67;;;4.00;99.90;;;;;;4979382;28;20225;-90
2021/12/04 14:32:50;;;;;;;11.87;6.77;;;4.10;99.90;;;;;;4979361;28;20261;-92
2021/12/04 14:35:24;;;;;;;9.60;6.77;;;4.10;99.90;;;;;;4979495;28;20575;-94
2021/12/04 14:37:59;;;;;;;10.27;6.87;;;4.10;99.90;;;;;;4979048;28;20370;-93
2021/12/04 14:40:35;;;;;;;8.80;6.77;;;4.10;99.90;;;;;;4980171;28;20213;-94
2021/12/04 14:43:07;;;;;;;10.97;7.07;;;4.20;99.90;;;;;;4980420;28;20211;-93
2021/12/04 14:45:58;;;;;;;8.10;6.37;;;4.20;99.90;;;;;;4979263;28;20250;-93
2021/12/04 14:48:35;;;;;;;12.10;6.97;;;4.20;99.90;;;;;;4959911;29;20230;-93
2021/12/04 14:51:13;;;;;;;7.90;6.00;;;4.20;99.90;;;;;;4961447;28;20275;-92
2021/12/04 14:53:49;;;;;;;11.73;6.40;;;4.20;99.90;;;;;;4970530;28;20262;-91
2021/12/04 14:56:23;;;;;;;9.90;6.63;;;4.20;99.90;;;;;;4975060;28;20215;-91
2021/12/04 14:58:54;;;;;;;10.73;7.20;;;4.20;99.90;;;;;;4960187;28;20227;-90
2021/12/04 15:01:32;;;;;;;10.73;6.63;;;4.20;99.90;;;;;;4968328;28;20215;-91
2021/12/04 15:04:06;;;;;;;14.23;6.90;;;4.20;99.90;;;;;;4977577;28;20211;-92
2021/12/04 15:06:39;;;;;;;15.50;7.33;;;4.20;99.90;;;;;;4977502;28;20235;-93
2021/12/04 15:09:15;;;;;;;9.47;6.43;;;4.20;99.90;;;;;;4978178;28;20278;-92
2021/12/04 15:11:48;;;;;;;9.87;7.27;;;4.20;99.90;;;;;;4978777;28;20207;-93
2021/12/04 15:14:32;;;;;;;10.47;7.30;;;4.20;99.90;;;;;;4978527;28;20222;-92
2021/12/04 15:17:15;;;;;;;11.57;7.10;;;4.20;99.90;;;;;;4976578;28;20290;-94
2021/12/04 15:19:48;;;;;;;8.60;6.80;;;4.20;99.90;;;;;;4978217;28;20214;-92
2021/12/04 15:22:29;;;;;;;8.33;6.87;;;4.10;99.90;;;;;;4963676;28;20203;-92
2021/12/04 15:25:03;;;;;;;10.17;7.40;;;4.10;99.90;;;;;;4983951;28;20218;-93
2021/12/04 15:27:35;;;;;;;10.67;7.53;;;4.20;99.90;;;;;;4979162;28;20206;-94
2021/12/04 15:30:10;;;;;;;11.40;7.80;;;4.10;99.90;;;;;;4977059;28;20572;-93
2021/12/04 15:32:46;;;;;;;10.10;6.97;;;4.10;99.90;;;;;;4985545;28;20211;-92
2021/12/04 15:35:26;;;;;;;10.97;6.87;;;4.00;99.90;;;;;;4984162;28;20206;-92
2021/12/04 15:38:04;;;;;;;9.37;6.67;;;4.00;99.90;;;;;;4981985;28;20629;-92
2021/12/04 15:40:44;;;;;;;10.13;7.00;;;4.00;99.90;;;;;;4983367;28;20638;-92
2021/12/04 15:43:23;;;;;;;13.33;7.13;;;4.00;99.90;;;;;;4981252;28;20203;-92
2021/12/04 15:46:06;;;;;;;11.27;7.23;;;3.90;99.90;;;;;;4989741;28;20669;-95
2021/12/04 15:49:12;;;;;;;8.90;6.77;;;3.90;99.90;;;;;;5002640;28;20210;-93
2021/12/04 15:54:53;;;;;;;10.33;7.10;;;3.90;99.90;;;;;;5003924;28;20237;-93
2021/12/04 15:57:28;;;;;;;11.70;7.40;;;3.80;99.90;;;;;;4986160;28;20191;-94
2021/12/04 16:00:02;;;;;;;10.07;6.80;;;3.80;99.90;;;;;;5000464;28;20225;-93
2021/12/04 16:02:43;;;;;;;10.77;7.30;;;3.80;99.90;;;;;;4996989;28;20226;-93
2021/12/04 16:05:25;;;;;;;13.57;7.43;;;3.80;99.90;;;;;;4982959;28;20238;-93
2021/12/04 16:08:07;;;;;;;13.73;7.40;;;3.80;99.90;;;;;;4984484;28;20218;-90
2021/12/04 16:10:41;;;;;;;9.50;7.50;;;3.80;99.90;;;;;;4985509;28;20671;-93
2021/12/04 16:13:20;;;;;;;11.17;7.07;;;3.80;99.90;;;;;;4998842;28;20309;-93
2021/12/04 16:15:52;;;;;;;10.73;7.17;;;3.80;99.90;;;;;;5071651;23;20241;-92
2021/12/04 16:18:26;;;;;;;10.47;7.43;;;3.70;99.90;;;;;;5026451;28;20209;-90
2021/12/04 16:21:01;;;;;;;7.70;6.67;;;3.70;99.90;;;;;;5027998;28;20243;-90
2021/12/04 16:23:33;;;;;;;8.20;6.43;;;3.80;99.90;;;;;;5034078;28;20197;-91
2021/12/04 16:26:10;;;;;;;12.50;7.00;;;3.70;99.90;;;;;;5019166;28;20240;-91
2021/12/04 16:32:00;;;;;;;8.70;5.40;;;3.70;99.90;;;;;;4989893;28;20211;-90
2021/12/04 16:37:34;;;;;;;8.03;6.10;;;3.60;99.90;;;;;;4999187;28;20213;-93
2021/12/04 16:40:09;;;;;;;8.73;5.70;;;3.60;99.90;;;;;;5003103;28;20238;-92
2021/12/04 16:42:41;;;;;;;6.60;5.17;;;3.50;99.90;;;;;;4999434;28;20289;-91
2021/12/04 16:45:29;;;;;;;10.73;5.80;;;3.50;99.90;;;;;;5003063;28;20214;-91
2021/12/04 16:48:05;;;;;;;7.10;5.47;;;3.50;99.90;;;;;;5024959;28;20224;-90
2021/12/04 16:56:33;;;;;;;6.43;4.90;;;3.70;99.90;;;;;;5140870;28;20215;-90
2021/12/04 16:59:12;;;;;;;8.90;5.37;;;3.80;99.90;;;;;;5118004;28;20205;-90
2021/12/04 17:01:48;;;;;;;6.57;5.40;;;3.80;99.90;;;;;;5137684;28;20232;-90
2021/12/04 17:04:21;;;;;;;11.37;5.73;;;3.80;99.90;;;;;;5138972;28;20209;-90
2021/12/04 17:06:54;;;;;;;7.53;5.93;;;3.80;99.90;;;;;;5136682;28;20224;-89
2021/12/04 17:09:29;;;;;;;8.07;5.60;;;3.80;99.90;;;;;;5139474;28;20232;-92
2021/12/04 17:12:00;;;;;;;9.17;6.10;;;3.80;99.90;;;;;;5142893;28;20223;-91
2021/12/04 17:14:37;;;;;;;8.30;6.17;;;3.80;99.90;;;;;;5137949;28;20237;-92
2021/12/04 17:17:29;;;;;;;9.53;5.60;;;3.80;99.90;;;;;;5125872;28;20706;-91
2021/12/04 17:20:03;;;;;;;7.93;5.97;;;3.80;99.90;;;;;;5127895;28;20210;-90